Terminal Aerodrome Forecast
Issued by NWS Shreveport, LA

Home | Current Version | Previous Version | Text Only | Print | Product List | Glossary On
Versions: 1 2 3 4 5 6 7 8 9 10 11 12 13 14 15
000
FTUS44 KSHV 271140
TAFSHV
TAF
KSHV 271140Z 2712/2812 VRB03KT P6SM FEW080
     FM271400 24005KT P6SM SCT012 SCT250
      TEMPO 2714/2716 BKN012
     FM271600 24005KT P6SM SCT030 BKN250
     FM271800 21006KT P6SM SCT040 BKN250
     FM272000 21006KT P6SM VCTS BKN045CB
     FM280100 VRB04KT P6SM SCT050 BKN120 BKN250
     FM280800 VRB03KT P6SM VCSH BKN025=

USA.gov is the U.S. government's official web portal to all federal, state and local government web resources and services.